createdAt,value
2017-01-28T00:00:02.936Z,0
2017-01-28T00:05:03.294Z,0
2017-01-28T00:10:03.036Z,0
2017-01-28T00:15:02.854Z,0
2017-01-28T00:20:02.567Z,0
2017-01-28T00:25:03.417Z,0
2017-01-28T00:30:03.220Z,0
2017-01-28T00:35:02.982Z,0
2017-01-28T00:40:02.903Z,0
2017-01-28T00:45:02.571Z,0
2017-01-28T00:50:03.361Z,0
2017-01-28T00:55:03.026Z,0
2017-01-28T01:00:02.764Z,0
2017-01-28T01:05:03.016Z,0
2017-01-28T01:10:02.653Z,0
2017-01-28T01:15:03.435Z,0
2017-01-28T01:20:03.387Z,0
2017-01-28T01:25:03.264Z,0
2017-01-28T01:30:03.039Z,0
2017-01-28T01:35:02.818Z,0
2017-01-28T01:40:02.647Z,0
2017-01-28T01:45:03.329Z,0
2017-01-28T01:50:03.036Z,0
2017-01-28T01:55:02.836Z,0
2017-01-28T02:00:03.421Z,0
2017-01-28T02:05:03.148Z,0
2017-01-28T02:10:03.188Z,0
2017-01-28T02:15:03.132Z,0
2017-01-28T02:20:03.100Z,0
2017-01-28T02:25:03.002Z,0
2017-01-28T02:30:02.852Z,0
2017-01-28T02:35:03.464Z,0
2017-01-28T02:40:03.136Z,0
2017-01-28T02:45:03.025Z,0
2017-01-28T02:50:02.805Z,0
2017-01-28T02:55:02.503Z,0
2017-01-28T03:00:03.115Z,0
2017-01-28T03:05:02.804Z,0
2017-01-28T03:10:02.558Z,0
2017-01-28T03:15:03.315Z,0
2017-01-28T03:20:03.008Z,0
2017-01-28T03:25:02.679Z,0
2017-01-28T03:30:03.405Z,0
2017-01-28T03:35:03.215Z,0
2017-01-28T03:40:02.919Z,0
2017-01-28T03:45:02.722Z,0
2017-01-28T03:50:03.423Z,0
2017-01-28T03:55:03.319Z,0
2017-01-28T04:00:03.147Z,0
2017-01-28T04:05:03.081Z,0
2017-01-28T04:10:02.951Z,0
2017-01-28T04:15:02.735Z,0
2017-01-28T04:20:02.529Z,0
2017-01-28T04:25:03.271Z,0
2017-01-28T04:30:03.189Z,0
2017-01-28T04:35:03.123Z,0
2017-01-28T04:40:02.819Z,0
2017-01-28T04:45:02.755Z,0
2017-01-28T04:50:02.595Z,0
2017-01-28T04:55:03.405Z,0
2017-01-28T05:00:03.120Z,0
2017-01-28T05:05:02.845Z,0
2017-01-28T05:10:02.627Z,0
2017-01-28T05:15:02.562Z,0
2017-01-28T05:20:03.344Z,0
2017-01-28T05:25:03.220Z,0
2017-01-28T05:30:02.770Z,0
2017-01-28T05:35:03.463Z,0
2017-01-28T05:40:03.321Z,0
2017-01-28T05:45:03.119Z,0
2017-01-28T05:50:02.918Z,0
2017-01-28T05:55:02.627Z,0
2017-01-28T06:00:02.624Z,0
2017-01-28T06:05:03.409Z,0
2017-01-28T06:10:03.183Z,0
2017-01-28T06:15:02.867Z,0
2017-01-28T06:20:02.509Z,0
2017-01-28T06:25:03.133Z,0
2017-01-28T06:30:02.934Z,0
2017-01-28T06:35:02.713Z,0
2017-01-28T06:40:02.498Z,1
2017-01-28T06:45:03.374Z,3
2017-01-28T06:50:02.926Z,7
2017-01-28T06:55:02.507Z,12
2017-01-28T07:00:03.140Z,22
2017-01-28T07:05:02.871Z,47
2017-01-28T07:10:02.564Z,75
2017-01-28T07:15:02.534Z,86
2017-01-28T07:20:02.515Z,172
2017-01-28T07:25:03.319Z,303
2017-01-28T07:30:02.997Z,398
2017-01-28T07:35:02.789Z,511
2017-01-28T07:40:02.580Z,585
2017-01-28T07:45:03.346Z,691
2017-01-28T07:50:03.088Z,809
2017-01-28T07:55:02.862Z,1000
2017-01-28T08:00:02.636Z,1000
2017-01-28T08:05:03.416Z,1000
2017-01-28T08:10:03.085Z,1000
2017-01-28T08:15:02.790Z,1000
2017-01-28T08:20:02.605Z,2000
2017-01-28T08:25:02.599Z,2000
2017-01-28T08:30:03.504Z,2000
2017-01-28T08:35:03.423Z,2000
2017-01-28T08:40:03.309Z,2000
2017-01-28T08:45:02.883Z,3000
2017-01-28T08:50:02.994Z,3000
2017-01-28T08:55:02.852Z,4000
2017-01-28T09:00:02.491Z,4000
2017-01-28T09:05:03.062Z,4000
2017-01-28T09:10:02.858Z,5000
2017-01-28T09:15:02.641Z,5000
2017-01-28T09:20:03.341Z,27000
2017-01-28T09:25:03.260Z,28000
2017-01-28T09:30:03.124Z,30000
2017-01-28T09:35:02.714Z,32000
2017-01-28T09:40:03.463Z,33000
2017-01-28T09:45:03.202Z,33000
2017-01-28T09:50:02.880Z,19000
2017-01-28T09:55:02.482Z,23000
2017-01-28T10:00:03.084Z,15000
2017-01-28T10:05:02.992Z,17000
2017-01-28T10:10:02.754Z,18000
2017-01-28T10:15:02.606Z,16000
2017-01-28T10:20:02.632Z,13000
2017-01-28T10:25:03.432Z,18000
2017-01-28T10:30:03.395Z,19000
2017-01-28T10:35:03.035Z,28000
2017-01-28T10:40:02.790Z,23000
2017-01-28T10:45:02.818Z,22000
2017-01-28T10:50:03.077Z,15000
2017-01-28T10:55:02.474Z,8000
2017-01-28T11:00:03.199Z,14000
2017-01-28T11:05:03.296Z,11000
2017-01-28T11:10:02.542Z,11000
2017-01-28T11:15:02.611Z,11000
2017-01-28T11:20:03.109Z,9000
2017-01-28T11:25:03.197Z,7000
2017-01-28T11:30:02.630Z,8000
2017-01-28T11:35:03.024Z,8000
2017-01-28T11:40:03.157Z,8000
2017-01-28T11:45:03.328Z,9000
2017-01-28T11:50:03.325Z,10000
2017-01-28T11:55:02.723Z,14000
2017-01-28T12:00:02.480Z,12000
2017-01-28T12:05:02.808Z,8000
2017-01-28T12:10:03.274Z,7000
2017-01-28T12:15:03.263Z,7000
2017-01-28T12:20:03.354Z,8000
2017-01-28T12:25:03.322Z,12000
2017-01-28T12:30:02.811Z,11000
2017-01-28T12:35:02.614Z,14000
2017-01-28T12:40:03.303Z,21000
2017-01-28T12:45:02.997Z,21000
2017-01-28T12:50:03.210Z,21000
2017-01-28T12:55:03.167Z,12000
2017-01-28T13:00:02.667Z,6000
2017-01-28T13:05:02.516Z,6000
2017-01-28T13:10:03.343Z,6000
2017-01-28T13:15:02.475Z,6000
2017-01-28T13:20:03.453Z,6000
2017-01-28T13:25:02.626Z,6000
2017-01-28T13:30:03.325Z,5000
2017-01-28T13:35:03.098Z,5000
2017-01-28T13:40:02.853Z,5000
2017-01-28T13:45:02.579Z,4000
2017-01-28T13:50:03.174Z,4000
2017-01-28T13:55:03.031Z,4000
2017-01-28T14:00:03.010Z,3000
2017-01-28T14:05:03.066Z,3000
2017-01-28T14:10:03.157Z,4000
2017-01-28T14:15:02.711Z,4000
2017-01-28T14:20:02.905Z,3000
2017-01-28T14:25:02.714Z,4000
2017-01-28T14:30:03.397Z,4000
2017-01-28T14:35:02.562Z,5000
2017-01-28T14:40:03.044Z,4000
2017-01-28T14:45:02.878Z,3000
2017-01-28T14:50:03.183Z,3000
2017-01-28T14:55:02.656Z,3000
2017-01-28T15:00:02.666Z,2000
2017-01-28T15:05:02.482Z,1000
2017-01-28T15:10:03.081Z,2000
2017-01-28T15:15:03.411Z,1000
2017-01-28T15:20:03.420Z,915
2017-01-28T15:25:02.690Z,867
2017-01-28T15:30:03.305Z,841
2017-01-28T15:35:02.664Z,710
2017-01-28T15:40:02.827Z,613
2017-01-28T15:45:02.779Z,527
2017-01-28T15:50:02.725Z,496
2017-01-28T15:55:02.830Z,439
2017-01-28T16:00:03.282Z,522
2017-01-28T16:05:03.406Z,393
2017-01-28T16:10:02.618Z,263
2017-01-28T16:15:02.687Z,132
2017-01-28T16:20:02.879Z,76
2017-01-28T16:25:03.503Z,63
2017-01-28T16:30:03.306Z,51
2017-01-28T16:35:03.244Z,39
2017-01-28T16:40:03.192Z,20
2017-01-28T16:45:02.810Z,11
2017-01-28T16:50:02.475Z,4
2017-01-28T16:55:03.255Z,1
2017-01-28T17:00:02.943Z,0
2017-01-28T17:05:02.662Z,0
2017-01-28T17:10:03.207Z,0
2017-01-28T17:15:02.955Z,0
2017-01-28T17:20:02.649Z,0
2017-01-28T17:25:03.179Z,0
2017-01-28T17:30:02.717Z,0
2017-01-28T17:35:03.411Z,0
2017-01-28T17:40:03.101Z,0
2017-01-28T17:45:02.874Z,0
2017-01-28T17:50:02.856Z,0
2017-01-28T17:55:02.679Z,0
2017-01-28T18:00:02.678Z,0
2017-01-28T18:05:03.451Z,0
2017-01-28T18:10:02.999Z,0
2017-01-28T18:15:02.472Z,0
2017-01-28T18:20:03.382Z,0
2017-01-28T18:25:03.182Z,0
2017-01-28T18:30:03.178Z,0
2017-01-28T18:35:02.966Z,0
2017-01-28T18:40:03.017Z,0
2017-01-28T18:45:02.599Z,0
2017-01-28T18:50:03.245Z,0
2017-01-28T18:55:02.886Z,0
2017-01-28T19:00:02.740Z,0
2017-01-28T19:05:03.452Z,0
2017-01-28T19:10:03.127Z,0
2017-01-28T19:15:02.851Z,0
2017-01-28T19:20:02.727Z,0
2017-01-28T19:25:03.396Z,0
2017-01-28T19:30:03.359Z,0
2017-01-28T19:35:03.263Z,0
2017-01-28T19:40:02.923Z,0
2017-01-28T19:45:02.622Z,0
2017-01-28T19:50:03.497Z,0
2017-01-28T19:55:03.119Z,0
2017-01-28T20:00:02.962Z,0
2017-01-28T20:05:02.635Z,0
2017-01-28T20:10:03.270Z,0
2017-01-28T20:15:02.974Z,0
2017-01-28T20:20:02.720Z,0
2017-01-28T20:25:03.251Z,0
2017-01-28T20:30:02.960Z,0
2017-01-28T20:35:02.652Z,0
2017-01-28T20:40:02.681Z,0
2017-01-28T20:45:03.509Z,0
2017-01-28T20:50:03.209Z,0
2017-01-28T20:55:03.078Z,0
2017-01-28T21:00:02.963Z,0
2017-01-28T21:05:02.586Z,0
2017-01-28T21:10:03.190Z,0
2017-01-28T21:15:02.860Z,0
2017-01-28T21:20:02.618Z,0
2017-01-28T21:25:02.569Z,0
2017-01-28T21:30:02.542Z,0
2017-01-28T21:35:03.218Z,0
2017-01-28T21:40:02.948Z,0
2017-01-28T21:45:02.642Z,0
2017-01-28T21:50:03.350Z,0
2017-01-28T21:55:03.037Z,0
2017-01-28T22:00:02.889Z,0
2017-01-28T22:05:02.972Z,0
2017-01-28T22:10:02.640Z,0
2017-01-28T22:15:03.279Z,0
2017-01-28T22:20:02.991Z,0
2017-01-28T22:25:02.684Z,0
2017-01-28T22:30:03.449Z,0
2017-01-28T22:35:03.306Z,0
2017-01-28T22:40:03.080Z,0
2017-01-28T22:45:02.754Z,0
2017-01-28T22:50:02.561Z,0
2017-01-28T22:55:03.285Z,0
2017-01-28T23:00:03.142Z,0
2017-01-28T23:05:02.968Z,0
2017-01-28T23:10:02.780Z,0
2017-01-28T23:15:03.449Z,0
2017-01-28T23:20:03.029Z,0
2017-01-28T23:25:02.911Z,0
2017-01-28T23:30:02.620Z,0
2017-01-28T23:35:03.343Z,0
2017-01-28T23:40:02.930Z,0
2017-01-28T23:45:02.831Z,0
2017-01-28T23:50:03.445Z,0
2017-01-28T23:55:10.099Z,0
